sensor_id;sensor_type;location;lat;lon;timestamp;pressure;altitude;pressure_sealevel;temperature;humidity
43125;BME280;49182;50.788;7.318;2023-09-30T00:02:30;101770.75;;;11.74;100.00
43125;BME280;49182;50.788;7.318;2023-09-30T00:07:34;101794.75;;;11.84;100.00
43125;BME280;49182;50.788;7.318;2023-09-30T00:12:36;101699.16;;;11.17;100.00
43125;BME280;49182;50.788;7.318;2023-09-30T00:17:37;101810.00;;;11.67;100.00
43125;BME280;49182;50.788;7.318;2023-09-30T00:22:40;101811.41;;;11.60;100.00
43125;BME280;49182;50.788;7.318;2023-09-30T00:27:42;101802.78;;;11.46;100.00
43125;BME280;49182;50.788;7.318;2023-09-30T00:32:44;101806.41;;;11.32;100.00
43125;BME280;49182;50.788;7.318;2023-09-30T00:37:47;101842.56;;;11.44;100.00
43125;BME280;49182;50.788;7.318;2023-09-30T00:42:49;101839.16;;;11.42;100.00
43125;BME280;49182;50.788;7.318;2023-09-30T00:47:51;101821.00;;;11.38;100.00
43125;BME280;49182;50.788;7.318;2023-09-30T00:52:55;101827.56;;;11.32;100.00
43125;BME280;49182;50.788;7.318;2023-09-30T00:57:57;101822.53;;;11.29;100.00
43125;BME280;49182;50.788;7.318;2023-09-30T01:02:58;101806.56;;;11.18;100.00
43125;BME280;49182;50.788;7.318;2023-09-30T01:08:03;101816.19;;;11.19;100.00
43125;BME280;49182;50.788;7.318;2023-09-30T01:13:05;101827.19;;;11.13;100.00
43125;BME280;49182;50.788;7.318;2023-09-30T01:18:06;101841.91;;;11.17;100.00
43125;BME280;49182;50.788;7.318;2023-09-30T01:23:09;101823.81;;;11.11;100.00
43125;BME280;49182;50.788;7.318;2023-09-30T01:28:11;101733.19;;;10.47;100.00
43125;BME280;49182;50.788;7.318;2023-09-30T01:33:13;101839.69;;;11.11;100.00
43125;BME280;49182;50.788;7.318;2023-09-30T01:38:16;101768.66;;;10.68;100.00
43125;BME280;49182;50.788;7.318;2023-09-30T01:43:18;101782.63;;;10.83;100.00
43125;BME280;49182;50.788;7.318;2023-09-30T01:48:20;101841.56;;;11.21;100.00
43125;BME280;49182;50.788;7.318;2023-09-30T01:53:23;101844.91;;;11.23;100.00
43125;BME280;49182;50.788;7.318;2023-09-30T01:58:26;101783.97;;;10.88;100.00
43125;BME280;49182;50.788;7.318;2023-09-30T02:03:28;101840.16;;;11.41;100.00
43125;BME280;49182;50.788;7.318;2023-09-30T02:08:32;101847.72;;;11.58;100.00
43125;BME280;49182;50.788;7.318;2023-09-30T02:13:34;101862.50;;;11.61;100.00
43125;BME280;49182;50.788;7.318;2023-09-30T02:18:36;101869.28;;;11.65;100.00
43125;BME280;49182;50.788;7.318;2023-09-30T02:23:39;101869.38;;;11.63;100.00
43125;BME280;49182;50.788;7.318;2023-09-30T02:28:41;101858.81;;;11.63;100.00
43125;BME280;49182;50.788;7.318;2023-09-30T02:33:42;101822.59;;;11.40;100.00
43125;BME280;49182;50.788;7.318;2023-09-30T02:38:46;101858.00;;;11.50;100.00
43125;BME280;49182;50.788;7.318;2023-09-30T02:43:47;101849.13;;;11.39;100.00
43125;BME280;49182;50.788;7.318;2023-09-30T02:48:50;101791.56;;;11.06;100.00
43125;BME280;49182;50.788;7.318;2023-09-30T02:53:53;101857.59;;;11.44;100.00
43125;BME280;49182;50.788;7.318;2023-09-30T02:58:55;101753.66;;;10.81;100.00
43125;BME280;49182;50.788;7.318;2023-09-30T03:03:57;101840.47;;;11.36;100.00
43125;BME280;49182;50.788;7.318;2023-09-30T03:09:00;101864.59;;;11.32;100.00
43125;BME280;49182;50.788;7.318;2023-09-30T03:14:02;101842.63;;;11.06;100.00
43125;BME280;49182;50.788;7.318;2023-09-30T03:19:04;101682.81;;;10.25;100.00
43125;BME280;49182;50.788;7.318;2023-09-30T03:24:08;101763.09;;;10.73;100.00
43125;BME280;49182;50.788;7.318;2023-09-30T03:29:10;101751.88;;;10.69;100.00
43125;BME280;49182;50.788;7.318;2023-09-30T03:34:12;101857.16;;;11.37;100.00
43125;BME280;49182;50.788;7.318;2023-09-30T03:39:15;101869.44;;;11.38;100.00
43125;BME280;49182;50.788;7.318;2023-09-30T03:44:17;101882.75;;;11.36;100.00
43125;BME280;49182;50.788;7.318;2023-09-30T03:49:19;101832.97;;;11.18;100.00
43125;BME280;49182;50.788;7.318;2023-09-30T03:54:22;101784.06;;;11.00;100.00
43125;BME280;49182;50.788;7.318;2023-09-30T03:59:24;101872.25;;;11.60;100.00
43125;BME280;49182;50.788;7.318;2023-09-30T04:04:26;101830.00;;;11.35;100.00
43125;BME280;49182;50.788;7.318;2023-09-30T04:09:29;101858.19;;;11.60;100.00
43125;BME280;49182;50.788;7.318;2023-09-30T04:14:31;101866.13;;;11.60;100.00
43125;BME280;49182;50.788;7.318;2023-09-30T04:19:33;101815.31;;;11.31;100.00
43125;BME280;49182;50.788;7.318;2023-09-30T04:24:36;101861.63;;;11.73;100.00
43125;BME280;49182;50.788;7.318;2023-09-30T04:29:38;101865.88;;;11.75;100.00
43125;BME280;49182;50.788;7.318;2023-09-30T04:34:40;101862.19;;;11.78;100.00
43125;BME280;49182;50.788;7.318;2023-09-30T04:39:46;101870.84;;;11.80;100.00
43125;BME280;49182;50.788;7.318;2023-09-30T04:44:47;101857.28;;;11.85;100.00
43125;BME280;49182;50.788;7.318;2023-09-30T04:49:49;101819.56;;;11.57;100.00
43125;BME280;49182;50.788;7.318;2023-09-30T04:54:52;101869.22;;;11.90;100.00
43125;BME280;49182;50.788;7.318;2023-09-30T04:59:54;101854.75;;;11.83;100.00
43125;BME280;49182;50.788;7.318;2023-09-30T05:04:56;101892.22;;;11.90;100.00
43125;BME280;49182;50.788;7.318;2023-09-30T05:09:59;101899.19;;;11.91;100.00
43125;BME280;49182;50.788;7.318;2023-09-30T05:15:05;101904.50;;;11.91;100.00
43125;BME280;49182;50.788;7.318;2023-09-30T05:20:07;101903.50;;;11.92;100.00
43125;BME280;49182;50.788;7.318;2023-09-30T05:25:10;101905.19;;;11.93;100.00
43125;BME280;49182;50.788;7.318;2023-09-30T05:30:12;101865.16;;;11.73;100.00
43125;BME280;49182;50.788;7.318;2023-09-30T05:35:14;101894.63;;;11.93;100.00
43125;BME280;49182;50.788;7.318;2023-09-30T05:40:17;101910.41;;;11.94;100.00
43125;BME280;49182;50.788;7.318;2023-09-30T05:45:19;101931.22;;;11.99;100.00
43125;BME280;49182;50.788;7.318;2023-09-30T05:50:21;101921.59;;;11.98;100.00
43125;BME280;49182;50.788;7.318;2023-09-30T05:55:24;101897.00;;;11.85;100.00
43125;BME280;49182;50.788;7.318;2023-09-30T06:00:28;101909.53;;;11.94;100.00
43125;BME280;49182;50.788;7.318;2023-09-30T06:05:31;101833.16;;;11.40;100.00
43125;BME280;49182;50.788;7.318;2023-09-30T06:10:34;101926.63;;;11.90;100.00
43125;BME280;49182;50.788;7.318;2023-09-30T06:15:37;101924.47;;;11.95;100.00
43125;BME280;49182;50.788;7.318;2023-09-30T06:20:39;101935.16;;;11.93;100.00
43125;BME280;49182;50.788;7.318;2023-09-30T06:25:42;101939.00;;;11.89;100.00
43125;BME280;49182;50.788;7.318;2023-09-30T06:30:44;101825.69;;;11.34;100.00
43125;BME280;49182;50.788;7.318;2023-09-30T06:35:46;101940.75;;;12.01;100.00
43125;BME280;49182;50.788;7.318;2023-09-30T06:40:49;101936.38;;;12.13;100.00
43125;BME280;49182;50.788;7.318;2023-09-30T06:45:51;101925.88;;;12.11;100.00
43125;BME280;49182;50.788;7.318;2023-09-30T06:50:52;101821.56;;;11.66;100.00
43125;BME280;49182;50.788;7.318;2023-09-30T06:55:57;101890.88;;;12.08;100.00
43125;BME280;49182;50.788;7.318;2023-09-30T07:00:59;101927.63;;;12.47;100.00
43125;BME280;49182;50.788;7.318;2023-09-30T07:06:01;101952.56;;;12.80;100.00
43125;BME280;49182;50.788;7.318;2023-09-30T07:11:04;101805.97;;;11.98;100.00
43125;BME280;49182;50.788;7.318;2023-09-30T07:16:06;101965.09;;;13.13;100.00
43125;BME280;49182;50.788;7.318;2023-09-30T07:21:08;101965.47;;;13.19;100.00
43125;BME280;49182;50.788;7.318;2023-09-30T07:26:11;101925.56;;;13.21;100.00
43125;BME280;49182;50.788;7.318;2023-09-30T07:31:12;101882.13;;;13.00;100.00
43125;BME280;49182;50.788;7.318;2023-09-30T07:36:14;101951.84;;;13.46;100.00
43125;BME280;49182;50.788;7.318;2023-09-30T07:41:18;101983.00;;;13.66;100.00
43125;BME280;49182;50.788;7.318;2023-09-30T07:46:19;101993.84;;;13.74;100.00
43125;BME280;49182;50.788;7.318;2023-09-30T07:51:21;102013.66;;;13.93;100.00
43125;BME280;49182;50.788;7.318;2023-09-30T07:56:24;102020.88;;;14.02;100.00
43125;BME280;49182;50.788;7.318;2023-09-30T08:01:26;102019.41;;;14.09;100.00
43125;BME280;49182;50.788;7.318;2023-09-30T08:06:28;101979.94;;;14.15;100.00
43125;BME280;49182;50.788;7.318;2023-09-30T08:11:31;101980.00;;;14.47;100.00
43125;BME280;49182;50.788;7.318;2023-09-30T08:16:33;101937.88;;;14.43;100.00
43125;BME280;49182;50.788;7.318;2023-09-30T08:21:35;102009.19;;;14.90;100.00
43125;BME280;49182;50.788;7.318;2023-09-30T08:26:38;102005.34;;;14.83;99.96
43125;BME280;49182;50.788;7.318;2023-09-30T08:31:39;102027.56;;;14.93;99.69
43125;BME280;49182;50.788;7.318;2023-09-30T08:36:41;102037.13;;;15.17;97.84
43125;BME280;49182;50.788;7.318;2023-09-30T08:41:44;101981.13;;;14.97;95.22
43125;BME280;49182;50.788;7.318;2023-09-30T08:46:46;102020.25;;;15.27;93.81
43125;BME280;49182;50.788;7.318;2023-09-30T08:51:48;101921.91;;;14.75;94.14
43125;BME280;49182;50.788;7.318;2023-09-30T08:56:52;102048.69;;;15.48;94.09
43125;BME280;49182;50.788;7.318;2023-09-30T09:01:55;102015.13;;;15.35;92.90
43125;BME280;49182;50.788;7.318;2023-09-30T09:06:57;102022.91;;;15.48;89.75
43125;BME280;49182;50.788;7.318;2023-09-30T09:12:00;102045.16;;;15.47;92.31
43125;BME280;49182;50.788;7.318;2023-09-30T09:17:02;102021.09;;;15.49;91.56
43125;BME280;49182;50.788;7.318;2023-09-30T09:22:03;102011.47;;;15.57;91.11
43125;BME280;49182;50.788;7.318;2023-09-30T09:27:18;102004.63;;;15.55;92.06
43125;BME280;49182;50.788;7.318;2023-09-30T09:32:19;102000.88;;;15.67;92.93
43125;BME280;49182;50.788;7.318;2023-09-30T09:37:22;101969.16;;;15.54;90.41
43125;BME280;49182;50.788;7.318;2023-09-30T09:42:27;102001.59;;;15.69;92.70
43125;BME280;49182;50.788;7.318;2023-09-30T09:47:29;101928.72;;;15.49;91.44
43125;BME280;49182;50.788;7.318;2023-09-30T09:52:34;101892.09;;;15.53;89.90
43125;BME280;49182;50.788;7.318;2023-09-30T09:57:37;101995.72;;;16.15;90.27
43125;BME280;49182;50.788;7.318;2023-09-30T10:02:41;101979.00;;;16.03;89.83
43125;BME280;49182;50.788;7.318;2023-09-30T10:07:47;102001.81;;;16.46;89.06
43125;BME280;49182;50.788;7.318;2023-09-30T10:12:53;101995.25;;;16.79;87.87
43125;BME280;49182;50.788;7.318;2023-09-30T10:17:58;101944.59;;;16.69;86.25
43125;BME280;49182;50.788;7.318;2023-09-30T10:23:28;101995.94;;;17.19;83.73
43125;BME280;49182;50.788;7.318;2023-09-30T10:28:36;101995.31;;;17.45;83.17
43125;BME280;49182;50.788;7.318;2023-09-30T10:44:54;101958.88;;;17.90;78.72
43125;BME280;49182;50.788;7.318;2023-09-30T10:49:56;101992.25;;;18.31;74.87
43125;BME280;49182;50.788;7.318;2023-09-30T10:55:02;101982.19;;;18.43;73.03
43125;BME280;49182;50.788;7.318;2023-09-30T11:00:09;101987.34;;;18.72;75.45
43125;BME280;49182;50.788;7.318;2023-09-30T11:05:11;101992.09;;;19.21;73.27
43125;BME280;49182;50.788;7.318;2023-09-30T11:10:16;101997.47;;;19.47;71.53
43125;BME280;49182;50.788;7.318;2023-09-30T11:15:19;102008.22;;;19.81;69.93
43125;BME280;49182;50.788;7.318;2023-09-30T11:20:21;102009.22;;;19.80;65.48
43125;BME280;49182;50.788;7.318;2023-09-30T11:25:22;101995.56;;;19.99;64.38
43125;BME280;49182;50.788;7.318;2023-09-30T11:30:25;101986.69;;;19.99;65.38
43125;BME280;49182;50.788;7.318;2023-09-30T11:35:28;101977.84;;;20.14;65.87
43125;BME280;49182;50.788;7.318;2023-09-30T11:40:29;101973.00;;;20.26;63.31
43125;BME280;49182;50.788;7.318;2023-09-30T11:45:32;101965.28;;;20.15;62.86
43125;BME280;49182;50.788;7.318;2023-09-30T11:50:45;101922.34;;;19.99;59.29
43125;BME280;49182;50.788;7.318;2023-09-30T11:55:47;101951.13;;;20.47;61.81
43125;BME280;49182;50.788;7.318;2023-09-30T12:00:53;101958.34;;;21.03;61.09
43125;BME280;49182;50.788;7.318;2023-09-30T12:05:54;101961.47;;;21.47;60.15
43125;BME280;49182;50.788;7.318;2023-09-30T12:10:56;101949.09;;;21.77;55.88
43125;BME280;49182;50.788;7.318;2023-09-30T12:15:59;101949.09;;;21.77;55.85
43125;BME280;49182;50.788;7.318;2023-09-30T12:21:02;101954.69;;;22.06;57.48
43125;BME280;49182;50.788;7.318;2023-09-30T12:26:03;101945.66;;;22.22;52.36
43125;BME280;49182;50.788;7.318;2023-09-30T12:31:17;101927.09;;;22.35;50.16
43125;BME280;49182;50.788;7.318;2023-09-30T12:36:19;101918.28;;;21.96;51.04
43125;BME280;49182;50.788;7.318;2023-09-30T12:41:21;101890.53;;;21.95;53.11
43125;BME280;49182;50.788;7.318;2023-09-30T12:46:24;101881.78;;;21.93;50.58
43125;BME280;49182;50.788;7.318;2023-09-30T12:51:26;101891.22;;;21.89;51.85
43125;BME280;49182;50.788;7.318;2023-09-30T12:56:28;101911.19;;;21.95;51.64
43125;BME280;49182;50.788;7.318;2023-09-30T13:01:31;101913.88;;;21.95;51.19
43125;BME280;49182;50.788;7.318;2023-09-30T13:06:32;101904.88;;;21.79;49.94
43125;BME280;49182;50.788;7.318;2023-09-30T13:11:34;101901.13;;;21.89;51.22
43125;BME280;49182;50.788;7.318;2023-09-30T13:16:39;101903.00;;;21.88;50.82
43125;BME280;49182;50.788;7.318;2023-09-30T13:21:41;101908.50;;;21.56;50.92
43125;BME280;49182;50.788;7.318;2023-09-30T13:26:43;101902.22;;;21.32;50.09
43125;BME280;49182;50.788;7.318;2023-09-30T13:31:46;101877.41;;;21.22;50.52
43125;BME280;49182;50.788;7.318;2023-09-30T13:36:48;101887.69;;;21.58;50.57
43125;BME280;49182;50.788;7.318;2023-09-30T13:41:50;101888.09;;;22.08;50.33
43125;BME280;49182;50.788;7.318;2023-09-30T13:46:53;101878.75;;;22.42;49.19
43125;BME280;49182;50.788;7.318;2023-09-30T13:51:55;101876.59;;;22.83;49.77
43125;BME280;49182;50.788;7.318;2023-09-30T13:56:56;101807.16;;;22.70;48.41
43125;BME280;49182;50.788;7.318;2023-09-30T14:01:59;101872.78;;;23.21;49.31
43125;BME280;49182;50.788;7.318;2023-09-30T14:07:02;101766.84;;;22.62;48.77
43125;BME280;49182;50.788;7.318;2023-09-30T14:12:04;101847.34;;;22.94;48.14
43125;BME280;49182;50.788;7.318;2023-09-30T14:17:07;101837.09;;;22.75;47.42
43125;BME280;49182;50.788;7.318;2023-09-30T14:22:09;101837.31;;;22.51;50.44
43125;BME280;49182;50.788;7.318;2023-09-30T14:27:11;101831.22;;;22.34;50.73
43125;BME280;49182;50.788;7.318;2023-09-30T14:32:14;101764.31;;;21.86;50.30
43125;BME280;49182;50.788;7.318;2023-09-30T14:37:16;101823.16;;;22.11;51.34
43125;BME280;49182;50.788;7.318;2023-09-30T14:42:17;101827.00;;;21.86;51.64
43125;BME280;49182;50.788;7.318;2023-09-30T14:47:20;101833.38;;;21.62;52.64
43125;BME280;49182;50.788;7.318;2023-09-30T14:52:22;101689.00;;;20.47;53.88
43125;BME280;49182;50.788;7.318;2023-09-30T14:57:25;101827.38;;;21.13;54.35
43125;BME280;49182;50.788;7.318;2023-09-30T15:02:28;101831.97;;;20.96;56.14
43125;BME280;49182;50.788;7.318;2023-09-30T15:07:30;101834.50;;;20.90;56.96
43125;BME280;49182;50.788;7.318;2023-09-30T15:12:31;101807.47;;;20.91;56.58
43125;BME280;49182;50.788;7.318;2023-09-30T15:17:34;101819.00;;;21.08;55.01
43125;BME280;49182;50.788;7.318;2023-09-30T15:22:36;101805.25;;;21.03;55.14
43125;BME280;49182;50.788;7.318;2023-09-30T15:27:38;101662.75;;;20.02;55.66
43125;BME280;49182;50.788;7.318;2023-09-30T15:32:41;101811.19;;;20.74;56.82
43125;BME280;49182;50.788;7.318;2023-09-30T15:37:43;101717.53;;;20.08;58.33
43125;BME280;49182;50.788;7.318;2023-09-30T15:42:45;101789.63;;;20.35;60.24
43125;BME280;49182;50.788;7.318;2023-09-30T15:47:48;101724.94;;;19.73;61.04
43125;BME280;49182;50.788;7.318;2023-09-30T15:52:50;101795.94;;;19.94;62.69
43125;BME280;49182;50.788;7.318;2023-09-30T15:57:51;101799.47;;;19.78;63.34
43125;BME280;49182;50.788;7.318;2023-09-30T16:02:54;101804.44;;;19.57;64.13
43125;BME280;49182;50.788;7.318;2023-09-30T16:07:56;101785.72;;;19.23;65.83
43125;BME280;49182;50.788;7.318;2023-09-30T16:12:58;101802.94;;;19.12;67.20
43125;BME280;49182;50.788;7.318;2023-09-30T16:18:01;101798.19;;;18.98;67.80
43125;BME280;49182;50.788;7.318;2023-09-30T16:23:03;101656.59;;;17.93;68.47
43125;BME280;49182;50.788;7.318;2023-09-30T16:28:05;101815.72;;;18.67;69.42
43125;BME280;49182;50.788;7.318;2023-09-30T16:33:08;101808.00;;;18.46;69.90
43125;BME280;49182;50.788;7.318;2023-09-30T16:38:10;101814.72;;;18.24;72.13
43125;BME280;49182;50.788;7.318;2023-09-30T16:43:12;101819.28;;;17.96;73.17
43125;BME280;49182;50.788;7.318;2023-09-30T16:48:15;101810.59;;;17.76;75.03
43125;BME280;49182;50.788;7.318;2023-09-30T16:53:17;101798.16;;;17.40;75.98
43125;BME280;49182;50.788;7.318;2023-09-30T16:58:18;101807.19;;;17.29;77.42
43125;BME280;49182;50.788;7.318;2023-09-30T17:03:22;101817.44;;;17.07;78.07
43125;BME280;49182;50.788;7.318;2023-09-30T17:08:23;101749.66;;;16.43;79.36
43125;BME280;49182;50.788;7.318;2023-09-30T17:13:25;101789.66;;;16.43;80.42
43125;BME280;49182;50.788;7.318;2023-09-30T17:18:28;101826.41;;;16.49;81.27
43125;BME280;49182;50.788;7.318;2023-09-30T17:23:31;101770.06;;;16.06;81.94
43125;BME280;49182;50.788;7.318;2023-09-30T17:28:33;101797.69;;;15.95;82.68
43125;BME280;49182;50.788;7.318;2023-09-30T17:33:36;101831.47;;;15.95;84.03
43125;BME280;49182;50.788;7.318;2023-09-30T17:38:38;101838.34;;;15.78;84.47
43125;BME280;49182;50.788;7.318;2023-09-30T17:43:40;101834.06;;;15.56;85.60
43125;BME280;49182;50.788;7.318;2023-09-30T17:48:43;101837.06;;;15.32;86.21
43125;BME280;49182;50.788;7.318;2023-09-30T17:53:45;101822.59;;;15.16;86.89
43125;BME280;49182;50.788;7.318;2023-09-30T17:58:47;101826.53;;;14.91;86.80
43125;BME280;49182;50.788;7.318;2023-09-30T18:03:50;101833.16;;;14.76;87.89
43125;BME280;49182;50.788;7.318;2023-09-30T18:08:52;101833.88;;;14.57;89.41
43125;BME280;49182;50.788;7.318;2023-09-30T18:13:54;101839.56;;;14.32;89.67
43125;BME280;49182;50.788;7.318;2023-09-30T18:18:57;101838.19;;;14.16;91.11
43125;BME280;49182;50.788;7.318;2023-09-30T18:23:59;101839.31;;;14.03;92.17
43125;BME280;49182;50.788;7.318;2023-09-30T18:29:01;101850.22;;;13.89;92.61
43125;BME280;49182;50.788;7.318;2023-09-30T18:34:04;101844.94;;;13.77;94.01
43125;BME280;49182;50.788;7.318;2023-09-30T18:39:06;101815.59;;;13.47;94.88
43125;BME280;49182;50.788;7.318;2023-09-30T18:44:26;101842.00;;;13.49;95.00
43125;BME280;49182;50.788;7.318;2023-09-30T18:49:29;101829.72;;;13.36;94.53
43125;BME280;49182;50.788;7.318;2023-09-30T18:54:31;101837.22;;;13.20;95.57
43125;BME280;49182;50.788;7.318;2023-09-30T18:59:33;101834.03;;;13.04;95.23
43125;BME280;49182;50.788;7.318;2023-09-30T19:04:35;101827.75;;;12.94;95.39
43125;BME280;49182;50.788;7.318;2023-09-30T19:09:41;101826.44;;;12.88;95.88
43125;BME280;49182;50.788;7.318;2023-09-30T19:14:43;101823.66;;;12.79;97.13
43125;BME280;49182;50.788;7.318;2023-09-30T19:19:46;101831.09;;;12.63;97.00
43125;BME280;49182;50.788;7.318;2023-09-30T19:24:48;101838.41;;;12.59;98.55
43125;BME280;49182;50.788;7.318;2023-09-30T19:29:50;101852.50;;;12.48;99.17
43125;BME280;49182;50.788;7.318;2023-09-30T19:34:53;101813.75;;;12.12;98.60
43125;BME280;49182;50.788;7.318;2023-09-30T19:39:55;101831.25;;;12.26;98.42
43125;BME280;49182;50.788;7.318;2023-09-30T19:44:56;101844.31;;;12.16;98.55
43125;BME280;49182;50.788;7.318;2023-09-30T19:49:59;101854.84;;;12.05;98.49
43125;BME280;49182;50.788;7.318;2023-09-30T19:55:01;101771.84;;;11.59;99.14
43125;BME280;49182;50.788;7.318;2023-09-30T20:00:04;101834.09;;;11.88;98.79
43125;BME280;49182;50.788;7.318;2023-09-30T20:05:09;101825.25;;;11.77;99.01
43125;BME280;49182;50.788;7.318;2023-09-30T20:10:11;101829.88;;;11.73;99.50
43125;BME280;49182;50.788;7.318;2023-09-30T20:15:13;101836.34;;;11.69;100.00
43125;BME280;49182;50.788;7.318;2023-09-30T20:20:16;101822.13;;;11.59;100.00
43125;BME280;49182;50.788;7.318;2023-09-30T20:25:18;101829.19;;;11.58;100.00
43125;BME280;49182;50.788;7.318;2023-09-30T20:30:20;101834.94;;;11.52;100.00
43125;BME280;49182;50.788;7.318;2023-09-30T20:35:23;101832.38;;;11.51;100.00
43125;BME280;49182;50.788;7.318;2023-09-30T20:40:25;101845.94;;;11.46;100.00
43125;BME280;49182;50.788;7.318;2023-09-30T20:45:32;101840.75;;;11.45;100.00
43125;BME280;49182;50.788;7.318;2023-09-30T20:50:35;101832.41;;;11.38;100.00
43125;BME280;49182;50.788;7.318;2023-09-30T20:55:36;101829.38;;;11.31;100.00
43125;BME280;49182;50.788;7.318;2023-09-30T21:00:38;101827.06;;;11.27;100.00
43125;BME280;49182;50.788;7.318;2023-09-30T21:05:41;101823.16;;;11.20;100.00
43125;BME280;49182;50.788;7.318;2023-09-30T21:10:43;101828.88;;;11.14;100.00
43125;BME280;49182;50.788;7.318;2023-09-30T21:15:45;101820.63;;;11.06;100.00
43125;BME280;49182;50.788;7.318;2023-09-30T21:20:48;101821.72;;;10.90;100.00
43125;BME280;49182;50.788;7.318;2023-09-30T21:25:51;101807.44;;;10.68;100.00
43125;BME280;49182;50.788;7.318;2023-09-30T21:30:52;101840.13;;;10.79;100.00
43125;BME280;49182;50.788;7.318;2023-09-30T21:35:56;101838.94;;;10.71;100.00
43125;BME280;49182;50.788;7.318;2023-09-30T21:40:58;101761.59;;;10.18;100.00
43125;BME280;49182;50.788;7.318;2023-09-30T21:46:00;101833.75;;;10.57;100.00
43125;BME280;49182;50.788;7.318;2023-09-30T21:51:03;101840.50;;;10.48;100.00
43125;BME280;49182;50.788;7.318;2023-09-30T21:56:05;101834.56;;;10.32;100.00
43125;BME280;49182;50.788;7.318;2023-09-30T22:01:07;101816.72;;;10.08;100.00
43125;BME280;49182;50.788;7.318;2023-09-30T22:06:10;101836.31;;;10.19;100.00
43125;BME280;49182;50.788;7.318;2023-09-30T22:11:12;101844.88;;;10.22;100.00
43125;BME280;49182;50.788;7.318;2023-09-30T22:16:13;101815.84;;;9.95;100.00
43125;BME280;49182;50.788;7.318;2023-09-30T22:21:16;101811.59;;;9.80;100.00
43125;BME280;49182;50.788;7.318;2023-09-30T22:26:18;101816.00;;;9.80;100.00
43125;BME280;49182;50.788;7.318;2023-09-30T22:31:20;101848.56;;;9.93;100.00
43125;BME280;49182;50.788;7.318;2023-09-30T22:36:23;101852.34;;;9.89;100.00
43125;BME280;49182;50.788;7.318;2023-09-30T22:41:45;101843.91;;;9.69;100.00
43125;BME280;49182;50.788;7.318;2023-09-30T22:46:46;101857.47;;;9.78;100.00
43125;BME280;49182;50.788;7.318;2023-09-30T22:51:50;101849.63;;;9.76;100.00
43125;BME280;49182;50.788;7.318;2023-09-30T22:56:53;101844.03;;;9.68;100.00
43125;BME280;49182;50.788;7.318;2023-09-30T23:01:55;101846.22;;;9.61;100.00
43125;BME280;49182;50.788;7.318;2023-09-30T23:06:58;101838.56;;;9.57;100.00
43125;BME280;49182;50.788;7.318;2023-09-30T23:12:00;101766.22;;;9.07;100.00
43125;BME280;49182;50.788;7.318;2023-09-30T23:17:02;101841.25;;;9.43;100.00
43125;BME280;49182;50.788;7.318;2023-09-30T23:22:05;101844.06;;;9.40;100.00
43125;BME280;49182;50.788;7.318;2023-09-30T23:27:07;101845.13;;;9.37;100.00
43125;BME280;49182;50.788;7.318;2023-09-30T23:32:09;101846.38;;;9.31;100.00
43125;BME280;49182;50.788;7.318;2023-09-30T23:37:12;101835.06;;;9.29;100.00
43125;BME280;49182;50.788;7.318;2023-09-30T23:42:14;101821.88;;;9.15;100.00
43125;BME280;49182;50.788;7.318;2023-09-30T23:47:16;101761.41;;;8.71;100.00
43125;BME280;49182;50.788;7.318;2023-09-30T23:52:19;101842.25;;;9.13;100.00
43125;BME280;49182;50.788;7.318;2023-09-30T23:57:21;101833.75;;;9.08;100.00
